createdAt,value
2022-11-28T00:03:17.971Z,4.05
2022-11-28T00:08:47.567Z,4.04
2022-11-28T00:14:19.948Z,4.10
2022-11-28T00:19:48.749Z,4.10
2022-11-28T00:25:18.560Z,4.13
2022-11-28T00:30:49.433Z,4.05
2022-11-28T00:36:18.378Z,4.06
2022-11-28T00:41:47.353Z,4.08
2022-11-28T00:47:17.853Z,4.11
2022-11-28T00:52:47.307Z,4.18
2022-11-28T00:58:16.020Z,4.18
2022-11-28T01:03:47.535Z,4.17
2022-11-28T01:09:20.716Z,4.16
2022-11-28T01:14:50.171Z,4.16
2022-11-28T01:20:20.665Z,4.20
2022-11-28T01:25:49.802Z,4.21
2022-11-28T01:31:22.187Z,4.21
2022-11-28T01:36:52.170Z,4.23
2022-11-28T01:42:21.544Z,4.26
2022-11-28T01:47:53.006Z,4.28
2022-11-28T01:53:24.001Z,4.27
2022-11-28T01:58:59.271Z,4.26
2022-11-28T02:04:29.631Z,4.28
2022-11-28T02:10:01.849Z,4.27
2022-11-28T02:15:52.548Z,4.25
2022-11-28T02:21:39.761Z,4.24
2022-11-28T02:27:38.371Z,4.24
2022-11-28T02:33:15.712Z,4.23
2022-11-28T02:38:55.953Z,4.21
2022-11-28T02:44:33.270Z,4.25
2022-11-28T02:50:08.710Z,4.28
2022-11-28T02:55:41.167Z,4.26
2022-11-28T03:01:18.482Z,4.28
2022-11-28T03:07:00.137Z,4.26
2022-11-28T03:12:39.066Z,4.27
2022-11-28T03:18:13.446Z,4.27
2022-11-28T03:23:49.615Z,4.23
2022-11-28T03:29:24.582Z,4.23
2022-11-28T03:34:59.299Z,4.25
2022-11-28T03:40:37.718Z,4.26
2022-11-28T03:46:12.697Z,4.16
2022-11-28T03:51:47.953Z,4.20
2022-11-28T03:57:25.791Z,4.22
2022-11-28T04:03:03.859Z,4.22
2022-11-28T04:08:36.703Z,4.25
2022-11-28T04:14:13.407Z,4.23
2022-11-28T04:19:48.553Z,4.25
2022-11-28T04:25:21.256Z,4.27
2022-11-28T04:30:58.890Z,4.30
2022-11-28T04:36:30.158Z,4.31
2022-11-28T04:42:03.785Z,4.20
2022-11-28T04:47:34.574Z,4.10
2022-11-28T04:53:11.316Z,4.08
2022-11-28T04:58:43.062Z,4.08
2022-11-28T05:04:14.768Z,3.95
2022-11-28T05:09:43.809Z,3.94
2022-11-28T05:15:13.433Z,3.81
2022-11-28T05:20:43.311Z,3.70
2022-11-28T05:26:13.825Z,3.63
2022-11-28T05:31:42.807Z,3.57
2022-11-28T05:37:13.620Z,3.50
2022-11-28T05:42:43.039Z,3.63
2022-11-28T05:48:12.496Z,3.70
2022-11-28T05:53:42.561Z,3.62
2022-11-28T05:59:13.741Z,3.51
2022-11-28T06:04:42.965Z,3.46
2022-11-28T06:10:13.443Z,3.59
2022-11-28T06:15:45.513Z,3.45
2022-11-28T06:21:15.645Z,3.44
2022-11-28T06:26:46.627Z,3.41
2022-11-28T06:32:20.556Z,3.56
2022-11-28T06:37:50.814Z,3.51
2022-11-28T06:43:21.573Z,3.42
2022-11-28T06:48:51.990Z,3.43
2022-11-28T06:54:21.266Z,3.42
2022-11-28T06:59:51.600Z,3.41
2022-11-28T07:05:22.887Z,3.09
2022-11-28T07:10:52.096Z,3.22
2022-11-28T07:16:24.391Z,3.26
2022-11-28T07:21:53.148Z,3.09
2022-11-28T07:27:22.435Z,3.13
2022-11-28T07:32:55.357Z,3.12
2022-11-28T07:38:24.271Z,3.16
2022-11-28T07:43:57.459Z,3.22
2022-11-28T07:49:27.251Z,3.20
2022-11-28T07:54:56.213Z,3.28
2022-11-28T08:00:25.400Z,3.25
2022-11-28T08:06:02.971Z,3.28
2022-11-28T08:11:32.783Z,3.21
2022-11-28T08:17:02.301Z,3.25
2022-11-28T08:22:32.436Z,3.36
2022-11-28T08:27:58.269Z,3.40
2022-11-28T08:33:26.886Z,3.33
2022-11-28T08:39:16.738Z,3.47
2022-11-28T08:44:46.161Z,3.52
2022-11-28T08:50:10.177Z,3.57
2022-11-28T08:55:39.156Z,3.48
2022-11-28T09:01:17.022Z,3.54
2022-11-28T09:06:41.441Z,3.47
2022-11-28T09:12:09.149Z,3.41
2022-11-28T09:17:34.664Z,3.34
2022-11-28T09:22:58.297Z,3.26
2022-11-28T09:28:23.988Z,3.43
2022-11-28T09:33:53.442Z,3.48
2022-11-28T09:39:22.145Z,3.64
2022-11-28T09:44:52.771Z,3.28
2022-11-28T09:50:22.610Z,3.42
2022-11-28T09:55:53.709Z,3.37
2022-11-28T10:01:33.156Z,3.34
2022-11-28T10:07:07.941Z,3.26
2022-11-28T10:12:49.029Z,3.21
2022-11-28T10:18:31.024Z,3.07
2022-11-28T10:24:04.768Z,3.08
2022-11-28T10:29:34.871Z,3.08
2022-11-28T10:35:05.488Z,3.27
2022-11-28T10:40:40.378Z,3.40
2022-11-28T10:46:20.409Z,3.47
2022-11-28T10:51:55.132Z,3.34
2022-11-28T10:57:28.195Z,3.43
2022-11-28T11:03:02.426Z,3.28
2022-11-28T11:08:36.544Z,3.09
2022-11-28T11:14:03.483Z,3.22
2022-11-28T11:19:30.967Z,3.26
2022-11-28T11:25:16.302Z,3.10
2022-11-28T11:30:45.155Z,2.93
2022-11-28T11:36:25.738Z,3.03
2022-11-28T11:41:53.721Z,3.10
2022-11-28T11:47:18.106Z,3.15
2022-11-28T11:52:42.104Z,3.14
2022-11-28T11:58:12.600Z,3.10
2022-11-28T12:03:42.477Z,2.95
2022-11-28T12:16:05.933Z,3.11
2022-11-28T12:21:39.658Z,3.18
2022-11-28T12:27:14.211Z,3.17
2022-11-28T12:32:58.242Z,3.07
2022-11-28T12:38:36.493Z,3.01
2022-11-28T12:44:08.858Z,3.06
2022-11-28T12:49:42.601Z,3.02
2022-11-28T12:55:21.770Z,2.91
2022-11-28T13:01:00.568Z,2.94
2022-11-28T13:06:42.458Z,2.87
2022-11-28T13:12:24.229Z,2.69
2022-11-28T13:17:59.056Z,2.66
2022-11-28T13:23:37.131Z,2.74
2022-11-28T13:29:07.393Z,2.74
2022-11-28T13:34:37.927Z,2.57
2022-11-28T13:40:18.085Z,2.51
2022-11-28T13:45:44.502Z,2.44
2022-11-28T13:51:20.909Z,2.30
2022-11-28T13:57:13.988Z,2.33
2022-11-28T14:02:45.975Z,2.30
2022-11-28T14:08:30.561Z,2.19
2022-11-28T14:14:30.502Z,2.41
2022-11-28T14:20:14.093Z,2.41
2022-11-28T14:25:46.125Z,2.40
2022-11-28T14:31:33.209Z,2.45
2022-11-28T14:37:56.144Z,2.45
2022-11-28T14:43:27.494Z,2.28
2022-11-28T14:49:20.365Z,2.31
2022-11-28T14:54:53.250Z,2.32
2022-11-28T15:00:26.188Z,2.36
2022-11-28T15:06:00.507Z,2.28
2022-11-28T15:12:00.509Z,2.28
2022-11-28T15:17:33.516Z,2.22
2022-11-28T15:23:02.376Z,2.12
2022-11-28T15:28:34.078Z,2.13
2022-11-28T15:34:10.093Z,2.17
2022-11-28T15:39:42.011Z,2.13
2022-11-28T15:45:19.754Z,2.07
2022-11-28T15:50:52.333Z,2.08
2022-11-28T15:56:20.285Z,1.93
2022-11-28T16:01:50.304Z,1.87
2022-11-28T16:07:17.611Z,1.94
2022-11-28T16:12:46.625Z,1.97
2022-11-28T16:18:15.322Z,1.91
2022-11-28T16:23:40.315Z,1.92
2022-11-28T16:29:14.701Z,1.83
2022-11-28T16:34:48.008Z,1.83
2022-11-28T16:40:22.930Z,1.88
2022-11-28T16:46:00.346Z,1.81
2022-11-28T16:51:32.734Z,1.77
2022-11-28T16:57:14.739Z,1.76
2022-11-28T17:02:43.972Z,1.72
2022-11-28T17:08:13.328Z,1.68
2022-11-28T17:13:38.109Z,1.50
2022-11-28T17:19:04.221Z,1.35
2022-11-28T17:24:35.752Z,1.38
2022-11-28T17:30:08.381Z,1.31
2022-11-28T17:35:37.225Z,1.27
2022-11-28T17:41:01.779Z,1.40
2022-11-28T17:46:26.290Z,1.37
2022-11-28T17:51:57.763Z,1.18
2022-11-28T17:57:22.413Z,1.18
2022-11-28T18:02:52.358Z,1.21
2022-11-28T18:08:22.546Z,1.20
2022-11-28T18:13:50.755Z,1.15
2022-11-28T18:19:21.377Z,1.14
2022-11-28T18:24:49.462Z,1.07
2022-11-28T18:30:19.374Z,1.12
2022-11-28T18:35:47.164Z,1.11
2022-11-28T18:41:18.484Z,1.13
2022-11-28T18:46:48.351Z,1.09
2022-11-28T18:52:18.415Z,1.06
2022-11-28T18:57:43.118Z,1.05
2022-11-28T19:03:12.231Z,1.03
2022-11-28T19:08:44.146Z,1.03
2022-11-28T19:14:16.720Z,1.00
2022-11-28T19:19:46.551Z,0.91
2022-11-28T19:25:16.883Z,0.85
2022-11-28T19:30:46.400Z,0.77
2022-11-28T19:36:16.368Z,0.83
2022-11-28T19:41:47.458Z,0.84
2022-11-28T19:47:11.328Z,0.87
2022-11-28T19:52:40.658Z,0.92
2022-11-28T19:58:11.633Z,0.91
2022-11-28T20:03:35.991Z,0.90
2022-11-28T20:09:07.760Z,0.88
2022-11-28T20:14:40.569Z,0.86
2022-11-28T20:20:10.606Z,0.84
2022-11-28T20:25:36.329Z,0.87
2022-11-28T20:31:07.678Z,0.92
2022-11-28T20:36:36.478Z,0.87
2022-11-28T20:42:02.621Z,0.73
2022-11-28T20:47:35.038Z,0.67
2022-11-28T20:53:04.262Z,0.64
2022-11-28T20:58:28.653Z,0.72
2022-11-28T21:03:58.975Z,0.62
2022-11-28T21:09:22.217Z,0.66
2022-11-28T21:14:46.060Z,0.56
2022-11-28T21:20:16.706Z,0.55
2022-11-28T21:25:45.425Z,0.59
2022-11-28T21:31:16.913Z,0.61
2022-11-28T21:36:45.499Z,0.67
2022-11-28T21:42:08.702Z,0.57
2022-11-28T21:47:34.098Z,0.59
2022-11-28T21:52:57.616Z,0.55
2022-11-28T21:58:27.566Z,0.62
2022-11-28T22:03:50.556Z,0.62
2022-11-28T22:09:20.624Z,0.66
2022-11-28T22:14:49.701Z,0.70
2022-11-28T22:20:19.671Z,0.72
2022-11-28T22:25:54.164Z,0.70
2022-11-28T22:31:23.627Z,0.71
2022-11-28T22:36:52.966Z,0.77
2022-11-28T22:42:23.623Z,0.76
2022-11-28T22:47:55.002Z,0.75
2022-11-28T22:53:22.834Z,0.67
2022-11-28T22:58:53.582Z,0.71
2022-11-28T23:04:22.451Z,0.71
2022-11-28T23:09:45.953Z,0.64
2022-11-28T23:15:16.909Z,0.73
2022-11-28T23:20:46.409Z,0.62
2022-11-28T23:26:17.786Z,0.65
2022-11-28T23:31:43.016Z,0.63
2022-11-28T23:37:13.356Z,0.52
2022-11-28T23:42:43.021Z,0.55
2022-11-28T23:48:08.239Z,0.59
2022-11-28T23:53:37.807Z,0.27
2022-11-28T23:59:03.737Z,0.47
